Time;durP1;ratioP1;P1;durP2;ratioP2;P2;SDS_P1;SDS_P2;PMS_P1;PMS_P2;Temp;Humidity;BMP_temperature;BMP_pressure;BME280_temperature;BME280_humidity;BME280_pressure;Samples;Min_cycle;Max_cycle;Signal;HPM_P1;HPM_P2
2021/11/18 07:44:20;;;;;;;35.45;17.55;;;;;;;4.77;100.00;100431.38;5027125;28;20408;-80
2021/11/18 07:46:48;;;;;;;39.08;19.77;;;;;;;4.89;100.00;100434.09;5027211;28;20098;-80
2021/11/18 07:49:15;;;;;;;44.35;20.10;;;;;;;4.95;100.00;100436.31;5028607;28;20438;-80
2021/11/18 07:51:44;;;;;;;43.13;20.55;;;;;;;5.00;100.00;100431.47;5075354;27;20081;-81
2021/11/18 07:54:14;;;;;;;46.65;21.88;;;;;;;5.04;100.00;100424.84;5025969;28;20452;-81
2021/11/18 07:56:41;;;;;;;47.58;21.73;;;;;;;5.11;100.00;100425.22;5026168;28;20115;-81
2021/11/18 07:59:09;;;;;;;47.90;21.38;;;;;;;5.17;100.00;100430.16;5010626;28;20141;-81
2021/11/18 08:01:40;;;;;;;40.22;20.42;;;;;;;5.18;100.00;100431.88;5006207;28;20061;-80
2021/11/18 08:04:07;;;;;;;33.35;18.83;;;;;;;5.16;100.00;100420.34;5006927;28;20133;-80
2021/11/18 08:06:34;;;;;;;35.72;19.30;;;;;;;5.17;100.00;100427.44;5060516;28;20049;-80
2021/11/18 08:09:01;;;;;;;38.88;18.33;;;;;;;5.17;100.00;100413.13;5024601;28;20073;-80
2021/11/18 08:11:30;;;;;;;36.47;17.95;;;;;;;5.23;100.00;100421.56;5067693;27;20049;-80
2021/11/18 08:13:57;;;;;;;29.00;15.70;;;;;;;5.22;100.00;100427.94;5025948;28;20049;-80
2021/11/18 08:16:25;;;;;;;34.72;17.20;;;;;;;5.21;100.00;100426.25;5025454;28;20076;-80
2021/11/18 08:18:53;;;;;;;30.80;16.08;;;;;;;5.35;100.00;100432.41;5025460;28;20053;-80
2021/11/18 08:21:20;;;;;;;34.78;16.58;;;;;;;5.36;100.00;100423.31;5025490;28;20077;-80
2021/11/18 08:23:50;;;;;;;31.67;15.32;;;;;;;5.37;100.00;100423.19;5025244;28;20042;-80
2021/11/18 08:26:18;;;;;;;30.85;16.05;;;;;;;5.45;100.00;100438.75;5064227;28;20047;-80
2021/11/18 08:28:45;;;;;;;31.20;16.02;;;;;;;5.52;100.00;100447.25;5095388;28;20104;-80
2021/11/18 08:31:14;;;;;;;31.30;15.75;;;;;;;5.55;100.00;100450.56;5129350;28;20047;-80
2021/11/18 08:33:40;;;;;;;30.42;14.57;;;;;;;5.52;100.00;100445.41;5118099;28;20072;-80
2021/11/18 08:36:08;;;;;;;24.48;13.70;;;;;;;5.62;100.00;100454.47;5025460;28;20102;-80
2021/11/18 08:38:35;;;;;;;34.45;14.45;;;;;;;5.68;100.00;100455.84;5024909;28;20187;-80
2021/11/18 08:41:05;;;;;;;25.25;13.07;;;;;;;5.71;100.00;100452.91;5022735;28;20049;-80
2021/11/18 08:43:35;;;;;;;28.27;14.68;;;;;;;5.68;100.00;100456.69;5085279;28;20099;-80
2021/11/18 08:46:02;;;;;;;23.95;12.68;;;;;;;5.78;100.00;100459.53;5129457;27;20055;-80
2021/11/18 08:48:29;;;;;;;26.83;13.00;;;;;;;5.81;100.00;100463.81;5128909;27;20047;-80
2021/11/18 08:50:56;;;;;;;24.38;13.40;;;;;;;5.80;100.00;100462.13;5129134;27;20048;-80
2021/11/18 08:53:28;;;;;;;21.88;12.73;;;;;;;5.77;100.00;100460.50;5128074;27;20039;-80
2021/11/18 08:55:57;;;;;;;27.85;13.27;;;;;;;5.78;100.00;100466.75;5012375;28;20095;-80
2021/11/18 08:58:27;;;;;;;29.92;13.30;;;;;;;5.83;100.00;100475.34;5044968;28;20513;-80
2021/11/18 09:00:57;;;;;;;31.67;13.45;;;;;;;5.79;100.00;100465.78;5011853;28;20054;-80
2021/11/18 09:03:27;;;;;;;29.35;13.38;;;;;;;5.82;100.00;100466.38;5011615;28;20111;-80
2021/11/18 09:05:54;;;;;;;27.03;13.00;;;;;;;5.83;100.00;100462.72;5012054;28;20454;-80
2021/11/18 09:08:21;;;;;;;24.35;12.15;;;;;;;5.91;100.00;100463.94;5011230;28;20042;-80
2021/11/18 09:10:51;;;;;;;28.25;13.73;;;;;;;5.97;100.00;100461.63;5011347;28;20053;-80
2021/11/18 09:13:19;;;;;;;22.48;14.23;;;;;;;6.09;100.00;100448.97;5011907;28;20095;-80
2021/11/18 09:15:49;;;;;;;24.67;12.60;;;;;;;6.21;100.00;100449.84;5072386;28;20116;-80
2021/11/18 09:18:16;;;;;;;26.92;13.57;;;;;;;6.15;100.00;100459.28;5114535;28;20059;-79
2021/11/18 09:20:44;;;;;;;22.13;11.82;;;;;;;6.18;100.00;100459.03;5114943;28;20048;-80
2021/11/18 09:23:13;;;;;;;21.70;11.80;;;;;;;6.17;100.00;100457.34;5114764;28;20120;-80
2021/11/18 09:25:45;;;;;;;21.13;11.65;;;;;;;6.19;100.00;100458.06;5017034;28;20046;-80
2021/11/18 09:28:14;;;;;;;23.98;12.85;;;;;;;6.22;100.00;100462.38;5010070;28;20058;-80
2021/11/18 09:30:46;;;;;;;25.52;12.63;;;;;;;6.11;100.00;100449.75;5047146;28;20046;-80
2021/11/18 09:33:14;;;;;;;39.88;12.93;;;;;;;6.29;100.00;100469.00;5100332;28;20535;-80
2021/11/18 09:35:43;;;;;;;23.23;11.98;;;;;;;6.32;100.00;100473.25;5017864;28;20050;-80
2021/11/18 09:38:11;;;;;;;25.73;12.20;;;;;;;6.34;100.00;100460.50;5011421;28;20077;-80
2021/11/18 09:40:43;;;;;;;22.13;11.52;;;;;;;6.47;100.00;100469.28;5006279;28;20505;-80
2021/11/18 09:43:53;;;;;;;20.30;11.65;;;;;;;6.49;100.00;100463.78;5053892;28;20093;-80
2021/11/18 09:46:38;;;;;;;24.70;11.35;;;;;;;6.52;100.00;100469.78;5114485;28;20061;-80
2021/11/18 09:49:28;;;;;;;21.83;10.98;;;;;;;6.52;100.00;100460.84;5100915;27;20043;-80
2021/11/18 09:52:06;;;;;;;19.92;9.52;;;;;;;6.57;100.00;100473.97;4991319;28;20077;-80
2021/11/18 09:54:53;;;;;;;21.98;11.65;;;;;;;6.68;100.00;100471.22;4991487;28;20554;-80
2021/11/18 09:58:03;;;;;;;23.00;10.98;;;;;;;6.80;100.00;100470.19;5001270;28;20050;-80
2021/11/18 10:00:43;;;;;;;20.67;11.02;;;;;;;6.86;100.00;100466.09;5071096;28;20067;-80
2021/11/18 10:03:19;;;;;;;16.73;9.60;;;;;;;6.90;100.00;100467.56;5085811;28;20119;-80
2021/11/18 10:06:01;;;;;;;18.35;9.80;;;;;;;6.88;100.00;100467.69;5060103;28;20072;-80
2021/11/18 10:08:33;;;;;;;18.73;10.13;;;;;;;6.86;100.00;100469.66;5011054;28;20050;-80
2021/11/18 10:11:13;;;;;;;17.23;9.52;;;;;;;6.90;100.00;100470.28;5046100;28;20120;-80
2021/11/18 10:13:49;;;;;;;19.95;9.52;;;;;;;6.87;100.00;100475.94;4990985;28;20054;-80
2021/11/18 10:16:19;;;;;;;17.35;9.27;;;;;;;6.88;100.00;100474.94;4991319;28;20058;-80
2021/11/18 10:18:51;;;;;;;16.83;9.27;;;;;;;6.87;100.00;100465.13;5045507;28;20050;-80
2021/11/18 10:21:23;;;;;;;18.70;10.38;;;;;;;6.98;100.00;100466.91;5009966;28;20046;-80
2021/11/18 10:23:52;;;;;;;18.52;9.95;;;;;;;6.96;100.00;100463.50;5010477;28;20042;-80
2021/11/18 10:26:22;;;;;;;18.77;10.65;;;;;;;7.05;100.00;100468.97;5009722;28;20050;-80
2021/11/18 10:29:06;;;;;;;;;;;;;;;7.01;100.00;100470.22;5011345;28;20050;-80
2021/11/18 10:31:49;;;;;;;14.35;8.27;;;;;;;7.07;100.00;100464.28;5010022;28;19968;-81
2021/11/18 10:34:22;;;;;;;20.38;11.13;;;;;;;7.12;100.00;100455.81;5003325;28;20050;-81
2021/11/18 10:37:06;;;;;;;18.85;9.80;;;;;;;7.16;100.00;100464.50;5047207;28;20045;-80
2021/11/18 10:39:40;;;;;;;19.83;10.60;;;;;;;7.12;100.00;100455.81;4991161;28;20170;-80
2021/11/18 10:42:12;;;;;;;15.80;8.68;;;;;;;7.13;100.00;100462.91;4990183;28;20072;-80
2021/11/18 10:44:49;;;;;;;14.32;9.02;;;;;;;7.12;100.00;100458.50;4990691;28;20100;-80
2021/11/18 10:47:19;;;;;;;16.55;9.27;;;;;;;7.05;100.00;100443.78;4990748;28;20054;-81
2021/11/18 10:49:58;;;;;;;16.73;9.73;;;;;;;6.91;100.00;100432.28;4995390;28;20081;-80
2021/11/18 10:52:34;;;;;;;17.73;9.82;;;;;;;6.91;100.00;100444.97;4989329;28;20054;-81
2021/11/18 10:55:09;;;;;;;15.55;9.90;;;;;;;6.96;100.00;100437.31;5052889;28;20050;-80
2021/11/18 10:57:37;;;;;;;18.60;9.88;;;;;;;6.98;100.00;100439.88;4990747;28;20114;-80
2021/11/18 11:00:20;;;;;;;12.73;7.13;;;;;;;6.99;100.00;100450.56;4990373;28;20046;-80
2021/11/18 11:02:46;;;;;;;16.92;8.40;;;;;;;6.96;100.00;100437.31;4990775;28;20077;-80
2021/11/18 11:05:31;;;;;;;16.42;8.25;;;;;;;6.93;100.00;100447.53;4990391;28;20471;-80
2021/11/18 11:07:59;;;;;;;14.68;8.45;;;;;;;6.89;100.00;100442.41;4989447;28;20054;-80
2021/11/18 11:10:27;;;;;;;13.93;8.75;;;;;;;6.92;100.00;100449.38;5042857;28;20499;-80
2021/11/18 11:13:01;;;;;;;14.50;8.57;;;;;;;6.81;100.00;100449.44;5009069;28;20423;-80
2021/11/18 11:15:53;;;;;;;17.20;9.02;;;;;;;6.94;100.00;100463.63;5008950;28;20047;-79
2021/11/18 11:18:45;;;;;;;13.45;8.23;;;;;;;6.97;100.00;100455.25;5052273;28;20099;-80
2021/11/18 11:21:32;;;;;;;15.50;9.55;;;;;;;7.10;100.00;100449.66;5002994;28;20070;-80
2021/11/18 11:24:43;;;;;;;13.27;7.78;;;;;;;7.13;100.00;100441.28;5009543;28;20050;-80
2021/11/18 11:27:51;;;;;;;15.15;7.97;;;;;;;7.26;100.00;100435.69;4991148;28;20053;-80
2021/11/18 11:30:33;;;;;;;16.73;8.63;;;;;;;7.29;100.00;100435.41;5002234;28;20095;-80
2021/11/18 11:33:04;;;;;;;14.15;7.75;;;;;;;7.36;100.00;100425.78;5037228;28;20043;-80
2021/11/18 11:35:42;;;;;;;16.02;7.95;;;;;;;7.50;100.00;100421.88;5069816;28;20059;-80
2021/11/18 11:38:35;;;;;;;16.98;8.02;;;;;;;7.35;100.00;100425.91;5105131;28;20244;-80
2021/11/18 11:41:25;;;;;;;14.32;8.82;;;;;;;7.32;100.00;100432.44;5009524;28;20077;-80
2021/11/18 11:43:56;;;;;;;15.68;8.27;;;;;;;7.34;100.00;100432.31;4966362;28;20050;-80
2021/11/18 11:46:37;;;;;;;13.18;7.88;;;;;;;7.62;100.00;100437.03;5007811;28;20045;-80
2021/11/18 11:49:16;;;;;;;14.10;8.00;;;;;;;7.55;100.00;100432.28;5009782;28;20058;-80
2021/11/18 11:51:52;;;;;;;16.40;8.70;;;;;;;7.68;100.00;100442.88;5044879;28;20099;-80
2021/11/18 11:55:02;;;;;;;13.30;7.75;;;;;;;7.67;100.00;100438.47;5102630;28;20285;-80
2021/11/18 11:57:40;;;;;;;15.15;7.95;;;;;;;7.76;100.00;100435.78;5112686;28;20048;-80
2021/11/18 12:00:17;;;;;;;12.68;7.47;;;;;;;7.75;100.00;100427.81;5095193;28;20120;-80
2021/11/18 12:03:03;;;;;;;11.50;6.45;;;;;;;7.92;100.00;100427.19;5009205;28;20054;-80
2021/11/18 12:05:35;;;;;;;13.13;6.68;;;;;;;7.94;100.00;100416.22;5019375;28;20046;-80
2021/11/18 12:08:07;;;;;;;10.52;6.57;;;;;;;7.90;100.00;100422.88;5030733;28;20067;-80
2021/11/18 12:10:40;;;;;;;11.80;6.60;;;;;;;7.88;100.00;100419.47;5008936;28;20340;-81
2021/11/18 12:13:18;;;;;;;11.15;6.35;;;;;;;8.06;100.00;100411.56;5008793;28;20421;-80
2021/11/18 12:15:49;;;;;;;10.82;6.38;;;;;;;8.21;100.00;100428.28;5008837;28;20050;-80
2021/11/18 12:18:22;;;;;;;;;;;;;;;8.23;100.00;100420.84;5010023;28;20057;-80
2021/11/18 12:20:49;;;;;;;8.18;4.55;;;;;;;7.90;100.00;100421.06;5002030;28;20506;-81
2021/11/18 12:23:20;;;;;;;9.38;5.97;;;;;;;8.14;100.00;100434.25;5041097;28;20044;-80
2021/11/18 12:26:13;;;;;;;11.38;5.72;;;;;;;7.85;100.00;100428.72;5079168;28;20096;-80
2021/11/18 12:28:55;;;;;;;10.13;5.35;;;;;;;7.98;100.00;100432.03;5112315;28;20104;-81
2021/11/18 12:31:30;;;;;;;8.15;4.60;;;;;;;7.97;100.00;100429.47;5115960;28;20104;-81
2021/11/18 12:34:00;;;;;;;9.30;5.65;;;;;;;7.95;100.00;100421.50;5093205;27;20049;-81
2021/11/18 12:36:48;;;;;;;;;;;;;;;8.03;100.00;100409.97;5012528;28;20053;-81
2021/11/18 12:39:44;;;;;;;9.02;5.40;;;;;;;8.03;100.00;100415.38;4989210;28;19926;-81
2021/11/18 12:42:51;;;;;;;12.02;5.95;;;;;;;7.96;100.00;100409.66;5072328;28;20051;-81
2021/11/18 12:45:49;;;;;;;7.28;4.70;;;;;;;7.96;100.00;100396.13;5052960;28;20137;-81
2021/11/18 12:48:22;;;;;;;10.07;5.60;;;;;;;7.90;100.00;100390.41;5063021;28;20052;-81
2021/11/18 12:51:10;;;;;;;7.72;4.85;;;;;;;7.94;100.00;100391.84;5083961;28;20108;-81
2021/11/18 12:53:39;;;;;;;7.85;4.85;;;;;;;7.88;100.00;100397.81;5115318;28;20051;-81
2021/11/18 12:56:14;;;;;;;9.73;5.10;;;;;;;7.98;100.00;100393.28;5115144;28;20047;-81
2021/11/18 12:59:07;;;;;;;7.97;5.20;;;;;;;7.94;100.00;100400.81;5115344;28;20048;-81
2021/11/18 13:01:55;;;;;;;7.90;4.85;;;;;;;8.02;100.00;100401.97;5110570;28;20099;-81
2021/11/18 13:05:00;;;;;;;9.23;4.63;;;;;;;8.09;100.00;100397.72;5002844;28;20490;-81
2021/11/18 13:07:48;;;;;;;9.05;4.80;;;;;;;7.98;100.00;100387.88;5015629;28;20516;-81
2021/11/18 13:10:35;;;;;;;7.93;5.15;;;;;;;7.92;100.00;100391.97;5011831;28;20049;-81
2021/11/18 13:13:36;;;;;;;10.77;5.30;;;;;;;7.93;100.00;100390.13;5011573;28;20085;-81
2021/11/18 13:16:31;;;;;;;7.95;4.43;;;;;;;7.83;100.00;100392.81;5011368;28;20103;-82
2021/11/18 13:19:12;;;;;;;6.63;4.80;;;;;;;7.88;100.00;100387.81;4992296;28;20108;-81
2021/11/18 13:21:53;;;;;;;11.73;4.90;;;;;;;7.86;100.00;100365.47;5017106;28;20047;-81
2021/11/18 13:24:38;;;;;;;7.35;5.10;;;;;;;7.86;100.00;100353.75;5072238;28;20483;-81
2021/11/18 13:27:21;;;;;;;7.43;4.45;;;;;;;7.85;98.95;100354.78;5114974;28;20127;-81
2021/11/18 13:29:51;;;;;;;9.35;5.32;;;;;;;7.85;100.00;100360.19;5114931;28;20039;-81
2021/11/18 13:32:23;;;;;;;10.55;4.32;;;;;;;7.70;100.00;100354.28;5079112;28;20049;-81
2021/11/18 13:35:16;;;;;;;7.82;4.07;;;;;;;7.79;100.00;100370.56;5000226;28;20054;-82
2021/11/18 13:37:47;;;;;;;9.98;4.97;;;;;;;7.85;100.00;100362.88;5021018;28;20440;-81
2021/11/18 13:40:20;;;;;;;7.05;4.22;;;;;;;7.87;100.00;100363.59;5071436;28;20047;-81
2021/11/18 13:47:14;;;;;;;9.90;4.28;;;;;;;7.87;100.00;100361.72;4972320;28;20082;-81
2021/11/18 13:49:51;;;;;;;7.22;3.70;;;;;;;7.82;100.00;100355.03;4991700;28;20133;-81
2021/11/18 13:52:30;;;;;;;7.20;3.63;;;;;;;7.93;100.00;100349.50;4990740;28;20050;-81
2021/11/18 13:55:15;;;;;;;8.93;4.30;;;;;;;7.99;99.97;100348.94;5048517;28;20566;-81
2021/11/18 13:57:45;;;;;;;6.65;3.47;;;;;;;8.09;97.82;100354.41;4991078;28;20430;-81
2021/11/18 14:00:19;;;;;;;7.32;3.92;;;;;;;7.83;99.52;100354.91;4991357;28;20081;-81
2021/11/18 14:03:12;;;;;;;10.63;3.63;;;;;;;7.72;100.00;100346.88;5004506;28;20057;-81
2021/11/18 14:05:58;;;;;;;5.97;3.80;;;;;;;7.72;100.00;100353.16;5010890;28;20107;-82
2021/11/18 14:08:29;;;;;;;7.47;3.60;;;;;;;7.52;100.00;100335.13;5009835;28;20061;-81
2021/11/18 14:10:59;;;;;;;5.95;4.10;;;;;;;7.51;100.00;100344.25;5042464;28;20066;-81
2021/11/18 14:13:40;;;;;;;5.05;3.30;;;;;;;7.66;100.00;100352.84;5071068;28;20096;-81
2021/11/18 14:16:09;;;;;;;6.82;3.80;;;;;;;7.75;99.21;100352.00;5099408;28;20062;-81
2021/11/18 14:18:57;;;;;;;7.35;4.28;;;;;;;7.53;100.00;100350.38;5009213;28;20046;-81
2021/11/18 14:21:31;;;;;;;7.80;4.13;;;;;;;7.55;100.00;100353.81;5010823;28;20045;-81
2021/11/18 14:24:07;;;;;;;7.05;3.92;;;;;;;7.57;100.00;100354.50;5010819;28;20100;-81
2021/11/18 14:26:39;;;;;;;7.70;3.70;;;;;;;7.59;100.00;100360.66;5010447;28;20557;-81
2021/11/18 14:29:43;;;;;;;10.63;3.72;;;;;;;7.50;100.00;100353.34;5049148;28;20055;-81
2021/11/18 14:32:19;;;;;;;6.50;3.72;;;;;;;7.64;100.00;100358.41;5011864;28;20130;-81
2021/11/18 14:34:55;;;;;;;5.57;3.67;;;;;;;7.62;100.00;100355.81;5001943;28;20447;-81
2021/11/18 14:37:34;;;;;;;10.43;4.25;;;;;;;7.71;99.53;100356.00;5010502;28;20054;-81
2021/11/18 14:40:06;;;;;;;6.15;3.80;;;;;;;7.54;100.00;100355.66;5009946;28;20065;-81
2021/11/18 14:42:50;;;;;;;6.38;3.97;;;;;;;7.41;100.00;100349.63;5009928;28;20099;-81
2021/11/18 14:45:23;;;;;;;4.78;3.35;;;;;;;7.46;100.00;100365.44;5009620;28;20110;-82
2021/11/18 14:48:10;;;;;;;5.93;3.42;;;;;;;7.44;100.00;100382.66;5047470;28;20057;-81
2021/11/18 14:50:39;;;;;;;7.45;3.33;;;;;;;7.61;100.00;100378.47;4989181;28;20551;-82
2021/11/18 14:53:22;;;;;;;6.22;3.47;;;;;;;7.51;100.00;100387.53;4988603;28;20513;-81
2021/11/18 14:56:03;;;;;;;7.55;3.45;;;;;;;7.41;100.00;100396.47;5052248;28;20118;-82
2021/11/18 14:58:31;;;;;;;9.80;5.40;;;;;;;7.25;100.00;100388.81;5009836;28;20054;-81
2021/11/18 15:01:01;;;;;;;6.35;3.78;;;;;;;7.52;100.00;100395.50;5009960;28;20085;-81
2021/11/18 15:03:30;;;;;;;8.30;3.77;;;;;;;7.29;100.00;100385.84;5010269;28;20443;-81
2021/11/18 15:05:58;;;;;;;6.40;3.80;;;;;;;7.18;100.00;100355.22;5010061;28;20110;-81
2021/11/18 15:08:26;;;;;;;6.80;3.63;;;;;;;7.23;100.00;100365.63;5009005;28;20081;-81
2021/11/18 15:10:55;;;;;;;7.55;3.90;;;;;;;7.22;100.00;100358.47;5029647;28;20100;-80
2021/11/18 15:13:27;;;;;;;8.00;3.95;;;;;;;7.19;100.00;100365.00;5019253;28;20064;-83
2021/11/18 15:15:54;;;;;;;7.95;3.92;;;;;;;7.19;100.00;100377.69;5071373;27;20054;-81
2021/11/18 15:18:21;;;;;;;6.57;3.50;;;;;;;7.11;100.00;100366.69;5112850;28;20104;-81
2021/11/18 15:20:51;;;;;;;30.92;16.60;;;;;;;7.07;100.00;100379.59;5084503;28;20481;-81
2021/11/18 15:23:21;;;;;;;8.52;3.97;;;;;;;7.08;100.00;100379.47;5011106;28;20506;-81
2021/11/18 15:25:52;;;;;;;7.43;4.15;;;;;;;6.98;100.00;100373.13;5112298;28;20411;-82
2021/11/18 15:28:21;;;;;;;7.45;4.07;;;;;;;6.81;100.00;100368.34;5112806;28;20095;-82
2021/11/18 15:30:52;;;;;;;8.57;4.00;;;;;;;6.77;100.00;100381.25;5030081;28;20042;-82
2021/11/18 15:33:34;;;;;;;8.65;3.92;;;;;;;6.71;100.00;100371.84;4992237;28;20154;-81
2021/11/18 15:36:02;;;;;;;8.15;4.03;;;;;;;6.63;100.00;100374.31;4989796;28;20133;-81
2021/11/18 15:38:30;;;;;;;10.43;3.92;;;;;;;6.58;100.00;100389.19;5015584;28;20049;-83
2021/11/18 15:40:59;;;;;;;5.15;3.80;;;;;;;6.50;100.00;100393.41;5003440;28;20465;-81
2021/11/18 15:43:28;;;;;;;5.93;3.28;;;;;;;6.53;100.00;100389.56;5000204;28;20046;-82
2021/11/18 15:45:57;;;;;;;6.32;3.97;;;;;;;6.27;100.00;100398.00;4995360;28;20114;-81
2021/11/18 15:48:25;;;;;;;5.45;3.25;;;;;;;6.11;100.00;100392.16;5051030;28;20054;-81
2021/11/18 15:50:54;;;;;;;6.50;3.15;;;;;;;5.92;100.00;100390.09;5078858;28;20047;-81
2021/11/18 15:53:31;;;;;;;6.57;4.05;;;;;;;5.91;100.00;100394.63;5112295;28;20063;-81
2021/11/18 15:56:00;;;;;;;6.13;3.67;;;;;;;5.80;100.00;100392.78;5113858;28;20051;-81
2021/11/18 15:58:28;;;;;;;8.63;3.67;;;;;;;5.85;100.00;100405.91;5113683;28;20048;-81
2021/11/18 16:00:59;;;;;;;6.43;4.03;;;;;;;5.57;100.00;100412.66;5020121;28;20116;-81
2021/11/18 16:03:28;;;;;;;7.63;4.80;;;;;;;5.40;100.00;100417.53;5034790;28;20043;-81
2021/11/18 16:05:56;;;;;;;5.32;3.70;;;;;;;5.42;100.00;100412.03;5005496;28;20073;-81
2021/11/18 16:08:27;;;;;;;11.95;4.07;;;;;;;5.38;100.00;100407.88;5023075;28;20150;-81
2021/11/18 16:11:03;;;;;;;7.50;3.65;;;;;;;5.19;100.00;100422.78;5012408;28;20050;-81
2021/11/18 16:13:32;;;;;;;7.30;4.13;;;;;;;5.12;100.00;100435.91;5002175;28;20119;-82
2021/11/18 16:16:01;;;;;;;8.73;4.35;;;;;;;5.14;100.00;100436.63;5003688;28;21010;-82
2021/11/18 16:18:32;;;;;;;9.10;3.63;;;;;;;5.05;100.00;100431.09;5012457;28;20054;-81
2021/11/18 16:21:02;;;;;;;6.80;4.07;;;;;;;4.95;100.00;100439.91;5051138;28;20041;-81
2021/11/18 16:23:30;;;;;;;7.05;4.72;;;;;;;4.89;100.00;100443.06;5071083;28;20052;-81
2021/11/18 16:25:57;;;;;;;6.80;4.00;;;;;;;4.83;100.00;100438.13;5053156;28;20088;-81
2021/11/18 16:28:24;;;;;;;6.15;4.18;;;;;;;4.73;100.00;100421.81;5006683;28;20050;-81
2021/11/18 16:30:53;;;;;;;10.75;6.28;;;;;;;4.71;100.00;100425.59;4998348;28;20042;-81
2021/11/18 16:33:21;;;;;;;8.82;5.68;;;;;;;4.77;100.00;100441.28;4992454;28;20054;-81
2021/11/18 16:35:51;;;;;;;10.05;4.90;;;;;;;4.76;100.00;100440.44;4993848;28;20464;-81
2021/11/18 16:38:20;;;;;;;6.70;4.77;;;;;;;4.74;100.00;100446.91;5003533;28;20050;-81
2021/11/18 16:40:50;;;;;;;10.53;4.40;;;;;;;4.67;100.00;100438.44;5058716;28;20299;-81
2021/11/18 16:43:17;;;;;;;5.95;4.40;;;;;;;4.70;100.00;100454.38;5026296;28;20692;-82
2021/11/18 16:45:48;;;;;;;8.68;4.22;;;;;;;4.77;100.00;100458.31;5057120;28;20042;-81
2021/11/18 16:48:17;;;;;;;7.57;4.43;;;;;;;4.74;100.00;100444.22;5023925;28;20038;-81
2021/11/18 16:50:49;;;;;;;7.97;4.38;;;;;;;4.71;100.00;100450.72;5081126;28;20134;-81
2021/11/18 16:53:17;;;;;;;8.30;5.13;;;;;;;4.66;100.00;100454.72;5100216;27;20053;-82
2021/11/18 16:55:46;;;;;;;9.93;4.65;;;;;;;4.61;100.00;100457.75;5003296;28;20132;-82
2021/11/18 16:58:14;;;;;;;8.40;5.35;;;;;;;4.57;100.00;100450.88;5024667;28;20043;-82
2021/11/18 17:00:45;;;;;;;11.32;5.97;;;;;;;4.60;100.00;100458.72;5033577;28;20141;-82
2021/11/18 17:03:13;;;;;;;9.05;5.60;;;;;;;4.64;100.00;100467.41;4988475;28;20102;-81
2021/11/18 17:05:41;;;;;;;14.85;8.23;;;;;;;4.64;100.00;100456.66;5004394;28;20517;-82
2021/11/18 17:08:14;;;;;;;11.18;6.60;;;;;;;4.64;100.00;100457.53;5011535;28;20098;-82
2021/11/18 17:10:44;;;;;;;12.45;7.07;;;;;;;4.62;100.00;100456.75;5006109;28;20054;-81
2021/11/18 17:13:12;;;;;;;18.33;7.15;;;;;;;4.66;100.00;100446.63;5004972;28;20099;-81
2021/11/18 17:15:40;;;;;;;10.30;7.07;;;;;;;4.61;100.00;100458.59;4999919;28;20110;-82
2021/11/18 17:18:09;;;;;;;12.95;7.15;;;;;;;4.59;100.00;100447.09;4992595;28;20050;-81
2021/11/18 17:20:39;;;;;;;10.73;6.32;;;;;;;4.65;100.00;100444.91;5008968;28;20049;-82
2021/11/18 17:23:08;;;;;;;10.35;5.63;;;;;;;4.56;100.00;100443.75;5009695;28;20056;-82
2021/11/18 17:25:39;;;;;;;10.93;6.72;;;;;;;4.68;100.00;100458.16;5008653;28;20046;-81
2021/11/18 17:28:07;;;;;;;8.38;5.43;;;;;;;4.64;100.00;100454.84;5010878;28;20060;-81
2021/11/18 17:30:37;;;;;;;9.80;5.03;;;;;;;4.47;100.00;100455.22;4999779;28;20100;-82
2021/11/18 17:33:06;;;;;;;12.00;5.20;;;;;;;4.41;100.00;100435.88;5005791;28;20462;-82
2021/11/18 17:35:38;;;;;;;10.30;5.90;;;;;;;4.43;100.00;100454.59;5016896;28;20096;-82
2021/11/18 17:38:05;;;;;;;11.85;5.78;;;;;;;4.51;100.00;100452.19;5011942;28;20057;-81
2021/11/18 17:40:37;;;;;;;11.48;5.85;;;;;;;4.45;100.00;100446.41;5011692;28;20050;-82
2021/11/18 17:43:08;;;;;;;10.68;6.38;;;;;;;4.35;100.00;100446.22;5010853;28;20264;-82
2021/11/18 17:45:41;;;;;;;9.43;5.95;;;;;;;4.60;100.00;100461.41;5002990;28;20538;-82
2021/11/18 17:48:08;;;;;;;9.60;5.57;;;;;;;4.47;100.00;100457.91;4993286;28;20050;-81
2021/11/18 17:50:39;;;;;;;13.88;5.68;;;;;;;4.39;100.00;100458.50;5071598;28;20044;-82
2021/11/18 17:53:07;;;;;;;8.88;5.10;;;;;;;4.30;100.00;100460.03;5114104;28;20097;-81
2021/11/18 17:55:35;;;;;;;12.15;5.82;;;;;;;4.35;100.00;100471.31;5113699;28;20097;-82
2021/11/18 17:58:03;;;;;;;16.00;6.32;;;;;;;4.25;100.00;100472.97;5114185;27;20048;-81
2021/11/18 18:00:33;;;;;;;10.13;5.35;;;;;;;4.01;100.00;100470.22;5068133;28;20129;-82
2021/11/18 18:03:01;;;;;;;13.75;6.70;;;;;;;3.96;100.00;100472.38;5010047;28;20050;-81
2021/11/18 18:05:28;;;;;;;12.73;7.47;;;;;;;3.94;100.00;100477.00;5006842;28;20050;-82
2021/11/18 18:07:56;;;;;;;14.25;8.88;;;;;;;3.98;100.00;100484.75;5048248;28;20053;-82
2021/11/18 18:10:23;;;;;;;14.90;8.82;;;;;;;3.97;100.00;100482.19;5107293;28;20103;-81
2021/11/18 18:12:53;;;;;;;16.70;9.05;;;;;;;4.05;100.00;100491.44;5113037;28;20435;-81
2021/11/18 18:15:26;;;;;;;10.90;6.70;;;;;;;4.06;100.00;100495.84;5058483;28;20065;-82
2021/11/18 18:17:54;;;;;;;20.17;9.18;;;;;;;4.01;100.00;100484.53;4990355;28;20050;-81
2021/11/18 18:20:25;;;;;;;21.25;9.65;;;;;;;4.11;100.00;100494.63;4990495;28;20444;-81
2021/11/18 18:22:52;;;;;;;21.30;13.00;;;;;;;4.06;100.00;100492.28;5029112;28;20056;-81
2021/11/18 18:25:20;;;;;;;13.32;7.88;;;;;;;4.20;100.00;100505.63;5070689;28;20059;-81
2021/11/18 18:27:49;;;;;;;14.60;7.35;;;;;;;4.17;100.00;100503.13;5112503;28;20048;-81
2021/11/18 18:30:20;;;;;;;15.00;6.88;;;;;;;4.23;100.00;100509.88;5057167;28;20394;-81
2021/11/18 18:32:50;;;;;;;12.27;6.05;;;;;;;4.23;100.00;100504.50;5009228;28;20077;-81
2021/11/18 18:35:18;;;;;;;13.30;6.03;;;;;;;4.23;100.00;100509.88;5010679;28;20475;-81
2021/11/18 18:37:45;;;;;;;14.88;7.35;;;;;;;4.10;100.00;100512.63;5009966;28;20305;-81
2021/11/18 18:40:16;;;;;;;11.98;7.30;;;;;;;4.04;100.00;100510.38;5011892;28;20530;-81
2021/11/18 18:42:45;;;;;;;14.73;6.55;;;;;;;4.13;100.00;100525.84;5069895;28;20043;-81
2021/11/18 18:45:14;;;;;;;11.45;6.15;;;;;;;4.03;100.00;100503.25;5048982;28;20058;-81
2021/11/18 18:47:41;;;;;;;17.05;7.57;;;;;;;4.17;100.00;100499.56;5009248;28;20054;-81
2021/11/18 18:50:13;;;;;;;13.93;8.02;;;;;;;4.17;100.00;100502.25;5009784;28;20050;-81
2021/11/18 18:52:41;;;;;;;14.73;7.82;;;;;;;4.27;100.00;100518.63;5009781;28;20107;-81
2021/11/18 18:55:11;;;;;;;13.93;6.85;;;;;;;4.17;100.00;100511.22;5009866;28;20060;-81
2021/11/18 18:57:38;;;;;;;12.40;7.43;;;;;;;4.21;100.00;100520.75;5029976;28;20043;-81
2021/11/18 19:00:14;;;;;;;14.57;7.88;;;;;;;4.36;100.00;100524.19;5068081;28;20515;-81
2021/11/18 19:02:41;;;;;;;15.57;8.80;;;;;;;4.25;100.00;100510.66;5112049;28;20047;-81
2021/11/18 19:05:11;;;;;;;17.50;9.30;;;;;;;4.34;100.00;100520.75;5112395;28;20517;-82
